Time;durP1;ratioP1;P1;durP2;ratioP2;P2;SDS_P1;SDS_P2;PMS_P1;PMS_P2;Temp;Humidity;BMP_temperature;BMP_pressure;BME280_temperature;BME280_humidity;BME280_pressure;Samples;Min_cycle;Max_cycle;Signal;HPM_P1;HPM_P2
2022/02/09 00:02:12;;;;;;;4.33;3.93;;;10.40;99.90;;;;;;5056619;28;20515;-71
2022/02/09 00:04:52;;;;;;;4.40;4.00;;;10.40;99.90;;;;;;5056904;28;20509;-72
2022/02/09 00:07:24;;;;;;;6.33;4.93;;;10.40;99.90;;;;;;5057243;28;20453;-71
2022/02/09 00:09:51;;;;;;;5.87;4.83;;;10.50;99.90;;;;;;5056529;28;20440;-71
2022/02/09 00:12:22;;;;;;;5.00;4.60;;;10.40;99.90;;;;;;5056361;28;20461;-71
2022/02/09 00:15:00;;;;;;;5.77;4.57;;;10.40;99.90;;;;;;5056427;28;20430;-71
2022/02/09 00:17:38;;;;;;;6.13;5.17;;;10.40;99.90;;;;;;5056292;28;20472;-71
2022/02/09 00:20:31;;;;;;;5.47;4.97;;;10.40;99.90;;;;;;5056321;28;20443;-71
2022/02/09 00:23:41;;;;;;;5.40;5.00;;;10.40;99.90;;;;;;5056084;28;20450;-72
2022/02/09 00:29:15;;;;;;;5.30;4.73;;;10.40;99.90;;;;;;5055971;28;20412;-72
2022/02/09 00:34:46;;;;;;;6.17;5.57;;;10.40;99.90;;;;;;5055903;28;20401;-72
2022/02/09 00:37:32;;;;;;;5.80;5.20;;;10.40;99.90;;;;;;5055984;28;20814;-72
2022/02/09 00:40:16;;;;;;;6.07;5.43;;;10.50;99.90;;;;;;5055659;28;20908;-72
2022/02/09 00:43:05;;;;;;;5.30;4.90;;;10.50;99.90;;;;;;5055916;28;20434;-72
2022/02/09 01:38:11;;;;;;;7.77;6.77;;;10.40;99.90;;;;;;5054549;28;20521;-71
2022/02/09 01:57:18;;;;;;;11.80;10.60;;;10.60;99.90;;;;;;5054212;28;20504;-72
2022/02/09 01:59:48;;;;;;;12.30;11.20;;;10.60;99.90;;;;;;5054663;28;20457;-72
2022/02/09 02:02:15;;;;;;;11.80;10.60;;;10.50;99.90;;;;;;5054337;28;20469;-71
2022/02/09 02:04:45;;;;;;;12.97;11.67;;;10.50;99.90;;;;;;5054359;28;20449;-72
2022/02/09 02:07:22;;;;;;;11.53;10.33;;;10.50;99.90;;;;;;5054354;28;20442;-71
2022/02/09 02:09:48;;;;;;;11.93;10.73;;;10.60;99.90;;;;;;5054295;28;20480;-71
2022/02/09 02:12:16;;;;;;;12.83;10.80;;;10.60;99.90;;;;;;5054159;28;20462;-71
2022/02/09 02:14:47;;;;;;;13.17;11.80;;;10.50;99.90;;;;;;5054052;28;20449;-71
2022/02/09 02:17:22;;;;;;;12.60;11.40;;;10.50;99.90;;;;;;5053757;28;20465;-72
2022/02/09 02:19:53;;;;;;;14.80;13.47;;;10.40;99.90;;;;;;5054086;28;20433;-70
2022/02/09 02:22:41;;;;;;;14.17;11.40;;;10.40;99.90;;;;;;5093024;22;20484;-66
2022/02/09 02:28:30;;;;;;;14.60;10.43;;;10.40;99.90;;;;;;5092709;27;20526;-65
2022/02/09 02:34:10;;;;;;;12.87;11.57;;;10.40;99.90;;;;;;5091555;28;20881;-64
2022/02/09 02:37:00;;;;;;;13.73;10.90;;;10.40;99.90;;;;;;5091517;28;20483;-65
2022/02/09 02:43:22;;;;;;;13.27;11.17;;;10.30;99.90;;;;;;5091223;28;20494;-64
2022/02/09 02:59:27;;;;;;;12.83;11.63;;;10.20;99.90;;;;;;5091081;28;20822;-65
2022/02/09 03:10:44;;;;;;;13.23;10.77;;;10.10;99.90;;;;;;5091155;28;20454;-65
2022/02/09 03:13:10;;;;;;;13.37;11.97;;;10.10;99.90;;;;;;5090914;28;20467;-66
2022/02/09 03:15:43;;;;;;;18.00;11.20;;;10.10;99.90;;;;;;5090444;28;20450;-65
2022/02/09 03:18:34;;;;;;;13.50;11.93;;;10.00;99.90;;;;;;5090500;28;20914;-65
2022/02/09 03:21:08;;;;;;;14.93;11.73;;;10.00;99.90;;;;;;5090566;28;20468;-65
2022/02/09 03:23:46;;;;;;;13.00;11.10;;;10.00;99.90;;;;;;5090614;28;20507;-65
2022/02/09 03:26:44;;;;;;;21.93;13.80;;;10.00;99.90;;;;;;5090314;28;20523;-65
2022/02/09 03:43:03;;;;;;;13.20;10.23;;;10.00;99.90;;;;;;5076583;28;20448;-64
2022/02/09 03:48:40;;;;;;;11.33;9.70;;;10.00;99.90;;;;;;5052465;28;20562;-65
2022/02/09 03:51:34;;;;;;;10.80;9.27;;;10.10;99.90;;;;;;5076342;28;20925;-65
2022/02/09 03:54:09;;;;;;;10.40;9.40;;;10.10;99.90;;;;;;5076784;28;20448;-65
2022/02/09 03:56:55;;;;;;;10.30;8.87;;;10.10;99.90;;;;;;5076561;28;20500;-65
2022/02/09 03:59:22;;;;;;;11.20;8.53;;;10.10;99.90;;;;;;5076623;28;20436;-65
2022/02/09 04:01:48;;;;;;;12.20;8.23;;;10.10;99.90;;;;;;5076309;28;20468;-65
2022/02/09 04:04:15;;;;;;;12.00;9.00;;;10.20;99.90;;;;;;5076462;28;20448;-65
2022/02/09 04:06:45;;;;;;;9.30;7.60;;;10.30;99.90;;;;;;5076152;28;20811;-65
2022/02/09 04:09:16;;;;;;;9.50;7.87;;;10.30;99.90;;;;;;5076108;28;20481;-64
2022/02/09 04:11:46;;;;;;;7.80;6.80;;;10.20;99.90;;;;;;5076046;28;20469;-65
2022/02/09 04:14:22;;;;;;;10.13;6.53;;;10.30;99.90;;;;;;5076033;28;20469;-65
2022/02/09 04:16:58;;;;;;;7.70;6.00;;;10.20;99.90;;;;;;5076147;28;20460;-65
2022/02/09 04:19:34;;;;;;;7.00;6.23;;;10.20;99.90;;;;;;5076240;28;20424;-65
2022/02/09 04:22:41;;;;;;;8.57;6.07;;;10.20;99.90;;;;;;5076417;28;20475;-64
2022/02/09 04:36:30;;;;;;;8.23;5.40;;;10.40;99.90;;;;;;5034050;28;20516;-65
2022/02/09 04:39:04;;;;;;;9.17;6.90;;;10.40;99.90;;;;;;5059657;28;20475;-65
2022/02/09 04:42:01;;;;;;;7.17;6.47;;;10.50;99.90;;;;;;5075686;28;20472;-65
2022/02/09 04:50:18;;;;;;;7.87;7.13;;;10.60;99.90;;;;;;5074729;28;20414;-65
2022/02/09 04:53:00;;;;;;;10.10;7.37;;;10.60;99.90;;;;;;5075856;28;20563;-65
2022/02/09 04:58:29;;;;;;;9.40;7.70;;;10.50;99.90;;;;;;5064617;28;20538;-65
2022/02/09 05:01:02;;;;;;;8.67;7.50;;;10.50;99.90;;;;;;5075381;28;20594;-65
2022/02/09 05:23:03;;;;;;;8.97;6.83;;;10.30;99.90;;;;;;5032631;28;20477;-65
2022/02/09 05:25:43;;;;;;;8.30;5.80;;;10.30;99.90;;;;;;5059925;28;20494;-65
2022/02/09 05:28:14;;;;;;;7.60;6.83;;;10.30;99.90;;;;;;5074637;28;20428;-64
2022/02/09 05:30:44;;;;;;;8.90;6.40;;;10.30;99.90;;;;;;5075063;28;20429;-65
2022/02/09 05:33:11;;;;;;;7.37;6.50;;;10.30;99.90;;;;;;5074824;28;20511;-65
2022/02/09 05:35:37;;;;;;;12.30;6.50;;;10.30;99.90;;;;;;5074714;28;20424;-65
2022/02/09 05:38:06;;;;;;;8.70;6.70;;;10.30;99.90;;;;;;5074880;28;20480;-64
2022/02/09 05:40:33;;;;;;;8.77;7.87;;;10.30;99.90;;;;;;5074141;28;20502;-66
2022/02/09 05:43:00;;;;;;;8.50;6.93;;;10.30;99.90;;;;;;5074747;28;20449;-65
2022/02/09 05:45:37;;;;;;;9.90;7.47;;;10.40;99.90;;;;;;5074538;28;20539;-65
2022/02/09 05:50:57;;;;;;;9.37;7.00;;;10.40;99.90;;;;;;5073944;28;20794;-64
2022/02/09 05:53:36;;;;;;;11.47;8.10;;;10.40;99.90;;;;;;5074367;28;20439;-64
2022/02/09 05:56:08;;;;;;;11.97;7.63;;;10.50;99.90;;;;;;5074164;28;20502;-65
2022/02/09 05:58:44;;;;;;;9.23;8.23;;;10.50;99.90;;;;;;5074310;28;20477;-64
2022/02/09 06:01:12;;;;;;;8.27;7.20;;;10.50;99.90;;;;;;5073935;28;20499;-65
2022/02/09 06:03:39;;;;;;;8.40;7.60;;;10.50;99.90;;;;;;5074001;28;20961;-64
2022/02/09 06:06:06;;;;;;;10.23;8.20;;;10.50;99.90;;;;;;5074198;28;20456;-64
2022/02/09 06:08:33;;;;;;;9.17;7.47;;;10.40;99.90;;;;;;5074242;28;20448;-64
2022/02/09 06:11:10;;;;;;;8.90;7.00;;;10.40;99.90;;;;;;5074124;28;20898;-65
2022/02/09 06:21:51;;;;;;;9.47;7.13;;;10.30;99.90;;;;;;5073525;28;20481;-64
2022/02/09 06:24:17;;;;;;;7.93;7.03;;;10.20;99.90;;;;;;5073622;28;20436;-64
2022/02/09 06:26:44;;;;;;;9.60;7.50;;;10.20;99.90;;;;;;5073571;28;20458;-65
2022/02/09 06:29:12;;;;;;;9.87;6.43;;;10.20;99.90;;;;;;5074284;28;20441;-65
2022/02/09 06:31:43;;;;;;;8.00;7.20;;;10.10;99.90;;;;;;5073984;28;20475;-64
2022/02/09 06:34:12;;;;;;;10.10;7.03;;;10.00;99.90;;;;;;5074394;28;20490;-64
2022/02/09 06:36:42;;;;;;;8.10;7.30;;;10.10;99.90;;;;;;5073521;28;20445;-65
2022/02/09 06:39:10;;;;;;;8.37;7.00;;;10.10;99.90;;;;;;5073343;28;20487;-65
2022/02/09 06:41:39;;;;;;;6.87;6.17;;;10.00;99.90;;;;;;5073308;28;20561;-65
2022/02/09 06:44:06;;;;;;;9.07;6.57;;;10.10;99.90;;;;;;5073231;28;20798;-65
2022/02/09 06:46:35;;;;;;;6.87;5.93;;;10.10;99.90;;;;;;5073392;28;20457;-65
2022/02/09 06:49:05;;;;;;;9.10;6.80;;;10.20;99.90;;;;;;5073493;28;20488;-65
2022/02/09 06:51:35;;;;;;;9.90;7.57;;;10.20;99.90;;;;;;5073162;28;20978;-65
2022/02/09 06:54:06;;;;;;;8.67;7.13;;;10.30;99.90;;;;;;5073348;28;20480;-65
2022/02/09 06:56:55;;;;;;;8.27;7.20;;;10.30;99.90;;;;;;5073300;28;20527;-65
2022/02/09 06:59:28;;;;;;;10.07;7.63;;;10.30;99.90;;;;;;5073544;28;20476;-64
2022/02/09 07:01:55;;;;;;;9.50;6.90;;;10.30;99.90;;;;;;5073865;28;20877;-64
2022/02/09 07:04:24;;;;;;;9.67;7.47;;;10.20;99.90;;;;;;5073277;28;20448;-65
2022/02/09 07:06:51;;;;;;;8.47;7.57;;;10.20;99.90;;;;;;5073589;28;20444;-65
2022/02/09 07:09:18;;;;;;;8.57;7.63;;;10.30;99.90;;;;;;5073322;28;20943;-64
2022/02/09 07:11:45;;;;;;;8.50;7.60;;;10.10;99.90;;;;;;5072934;28;20468;-65
2022/02/09 07:14:12;;;;;;;9.23;8.20;;;10.10;99.90;;;;;;5076260;28;20441;-65
2022/02/09 07:16:39;;;;;;;9.97;7.13;;;10.00;99.90;;;;;;5076800;28;20444;-65
2022/02/09 07:19:08;;;;;;;8.67;6.70;;;10.10;99.90;;;;;;5076696;28;20460;-64
2022/02/09 07:21:39;;;;;;;8.53;7.30;;;10.00;99.90;;;;;;5076725;28;20496;-65
2022/02/09 07:24:08;;;;;;;8.30;7.00;;;10.10;99.90;;;;;;5076710;28;20437;-65
2022/02/09 07:26:48;;;;;;;9.87;7.83;;;10.10;99.90;;;;;;5076325;28;20478;-64
2022/02/09 07:29:16;;;;;;;9.30;7.57;;;10.10;99.90;;;;;;5076451;28;20841;-65
2022/02/09 07:31:43;;;;;;;9.67;7.30;;;10.10;99.90;;;;;;5076335;28;20525;-64
2022/02/09 07:34:11;;;;;;;8.43;6.80;;;10.10;99.90;;;;;;5076292;28;20521;-64
2022/02/09 07:36:42;;;;;;;8.70;6.87;;;10.10;99.90;;;;;;5076307;28;20444;-64
2022/02/09 07:39:10;;;;;;;10.47;8.53;;;10.20;99.90;;;;;;5076183;28;20550;-64
2022/02/09 07:41:39;;;;;;;12.03;8.10;;;10.20;99.90;;;;;;5076074;28;20468;-64
2022/02/09 07:44:17;;;;;;;9.37;7.90;;;10.20;99.90;;;;;;5076116;28;20449;-64
2022/02/09 07:47:01;;;;;;;9.30;7.23;;;10.20;99.90;;;;;;5076206;28;20523;-65
2022/02/09 07:49:39;;;;;;;10.07;7.17;;;10.20;99.90;;;;;;5076706;28;20475;-64
2022/02/09 07:52:12;;;;;;;6.53;5.80;;;10.20;99.90;;;;;;5076209;28;20538;-64
2022/02/09 07:54:39;;;;;;;9.10;6.70;;;10.10;99.90;;;;;;5076235;28;20468;-64
2022/02/09 07:57:07;;;;;;;8.93;7.13;;;10.10;99.90;;;;;;5076049;28;20957;-64
2022/02/09 07:59:33;;;;;;;11.30;6.80;;;10.10;99.90;;;;;;5076325;28;20506;-64
2022/02/09 08:02:00;;;;;;;7.70;6.60;;;10.10;99.90;;;;;;5075500;28;20464;-64
2022/02/09 08:04:27;;;;;;;11.03;5.80;;;10.10;99.90;;;;;;5076265;28;20814;-65
2022/02/09 08:06:54;;;;;;;9.20;5.90;;;10.00;99.90;;;;;;5076174;28;20421;-64
2022/02/09 08:09:29;;;;;;;10.07;8.03;;;10.00;99.90;;;;;;5076256;28;20451;-65
2022/02/09 08:12:13;;;;;;;7.07;5.93;;;10.10;99.90;;;;;;5076308;28;20478;-64
2022/02/09 08:20:33;;;;;;;8.33;6.03;;;10.10;99.90;;;;;;5075473;28;20404;-64
2022/02/09 08:26:37;;;;;;;7.53;5.10;;;10.10;99.90;;;;;;5074987;28;20444;-64
2022/02/09 08:29:06;;;;;;;8.30;5.80;;;10.10;99.90;;;;;;5075008;28;20512;-64
2022/02/09 08:31:58;;;;;;;5.13;4.60;;;10.20;99.90;;;;;;5075298;28;20479;-65
2022/02/09 08:34:25;;;;;;;8.60;5.07;;;10.20;99.90;;;;;;5075512;28;20481;-65
2022/02/09 08:36:54;;;;;;;5.90;4.70;;;10.20;99.90;;;;;;5075944;28;20870;-64
2022/02/09 08:39:20;;;;;;;4.83;4.30;;;10.30;99.90;;;;;;5075497;28;21002;-64
2022/02/09 08:41:49;;;;;;;8.27;5.40;;;10.30;99.90;;;;;;5075680;28;20476;-64
2022/02/09 08:44:16;;;;;;;7.73;5.00;;;10.40;99.90;;;;;;5075795;28;20456;-64
2022/02/09 08:46:43;;;;;;;5.67;4.70;;;10.40;99.90;;;;;;5075061;28;20472;-64
2022/02/09 08:49:10;;;;;;;5.73;4.30;;;10.40;99.90;;;;;;5075227;28;20433;-64
2022/02/09 08:51:37;;;;;;;9.60;4.90;;;10.40;99.90;;;;;;5074780;28;20479;-64
2022/02/09 08:54:04;;;;;;;5.77;4.87;;;10.30;99.90;;;;;;5075541;28;20445;-64
2022/02/09 08:56:32;;;;;;;8.30;5.30;;;10.30;99.90;;;;;;5075472;28;20451;-64
2022/02/09 08:59:01;;;;;;;6.03;4.67;;;10.30;99.90;;;;;;5074918;28;20480;-65
2022/02/09 09:01:34;;;;;;;8.63;5.90;;;10.30;99.90;;;;;;5074535;28;21005;-64
2022/02/09 09:04:08;;;;;;;6.93;5.83;;;10.30;99.90;;;;;;5074629;28;20437;-64
2022/02/09 09:06:39;;;;;;;7.13;5.33;;;10.30;99.90;;;;;;5074312;28;20447;-64
2022/02/09 09:09:21;;;;;;;7.33;5.20;;;10.30;99.90;;;;;;5074343;28;20836;-64
2022/02/09 09:15:29;;;;;;;5.87;5.20;;;10.40;99.90;;;;;;5074483;28;20891;-64
2022/02/09 09:18:27;;;;;;;9.53;5.07;;;10.30;99.90;;;;;;5073915;28;20477;-64
2022/02/09 10:00:00;;;;;;;12.57;7.00;;;10.90;99.90;;;;;;5074614;28;20464;-64
2022/02/09 10:02:35;;;;;;;9.70;7.43;;;11.00;99.90;;;;;;5073917;28;20471;-65
2022/02/09 10:33:01;;;;;;;12.40;7.73;;;11.00;99.90;;;;;;5066526;28;20491;-65
2022/02/09 10:35:31;;;;;;;11.17;8.97;;;11.00;99.90;;;;;;5073771;28;20808;-65
2022/02/09 10:38:18;;;;;;;11.53;7.80;;;11.00;99.90;;;;;;5073561;28;20460;-65
2022/02/09 10:40:49;;;;;;;11.80;9.33;;;11.10;99.90;;;;;;5074088;28;20428;-64
2022/02/09 10:43:27;;;;;;;11.50;9.43;;;11.20;99.90;;;;;;5074120;28;20802;-65
2022/02/09 10:46:09;;;;;;;9.60;8.60;;;11.30;99.90;;;;;;5074393;28;20498;-64
2022/02/09 10:48:43;;;;;;;13.10;9.13;;;11.40;99.90;;;;;;5075695;28;20437;-65
2022/02/09 10:51:21;;;;;;;9.50;8.23;;;11.50;99.90;;;;;;5078028;28;20461;-65
2022/02/09 10:54:12;;;;;;;11.40;8.77;;;11.70;99.90;;;;;;5077627;28;20891;-65
2022/02/09 10:56:41;;;;;;;12.10;9.33;;;11.70;99.90;;;;;;5077995;28;20440;-64
2022/02/09 10:59:10;;;;;;;13.83;9.27;;;11.70;99.90;;;;;;5078317;28;20476;-64
2022/02/09 11:01:38;;;;;;;10.50;8.63;;;11.70;99.90;;;;;;5077651;28;20468;-64
2022/02/09 11:04:06;;;;;;;10.87;8.60;;;11.70;99.90;;;;;;5077219;28;20444;-64
2022/02/09 11:06:34;;;;;;;14.80;8.93;;;11.60;99.90;;;;;;5076799;28;20984;-64
2022/02/09 11:09:03;;;;;;;11.80;8.50;;;11.60;99.90;;;;;;5077232;28;20829;-64
2022/02/09 11:11:32;;;;;;;10.80;8.40;;;11.50;99.90;;;;;;5077310;28;20460;-64
2022/02/09 11:14:00;;;;;;;10.60;8.43;;;11.50;99.90;;;;;;5077349;28;20981;-65
2022/02/09 11:16:28;;;;;;;14.00;8.60;;;11.50;99.90;;;;;;5077244;28;20802;-65
2022/02/09 11:18:56;;;;;;;13.97;8.70;;;11.50;99.90;;;;;;5076894;28;20487;-64
2022/02/09 11:21:29;;;;;;;13.33;7.73;;;11.60;99.90;;;;;;5076959;28;20468;-64
2022/02/09 11:23:59;;;;;;;9.50;7.60;;;11.60;99.90;;;;;;5076609;28;20448;-65
2022/02/09 11:26:35;;;;;;;13.77;7.60;;;11.70;99.90;;;;;;5076140;28;20474;-64
2022/02/09 11:29:21;;;;;;;12.80;7.80;;;11.70;99.90;;;;;;5076852;28;20482;-64
2022/02/09 11:32:19;;;;;;;10.43;7.20;;;11.80;99.90;;;;;;5076638;28;20470;-64
2022/02/09 11:35:21;;;;;;;7.80;6.77;;;12.00;99.90;;;;;;5076545;28;20429;-64
2022/02/09 11:37:56;;;;;;;13.53;7.23;;;11.90;99.90;;;;;;5076338;28;20443;-64
2022/02/09 11:40:30;;;;;;;7.90;6.80;;;11.80;99.90;;;;;;5076602;28;20771;-64
2022/02/09 11:43:44;;;;;;;9.80;6.87;;;11.80;99.90;;;;;;5076092;28;20847;-64
2022/02/09 11:46:27;;;;;;;9.20;6.90;;;11.70;99.90;;;;;;5076276;28;20440;-64
2022/02/09 11:49:54;;;;;;;10.13;7.00;;;11.60;99.90;;;;;;5076638;28;20517;-65
2022/02/09 12:10:12;;;;;;;8.57;5.73;;;11.80;99.90;;;;;;5078431;28;20916;-65
2022/02/09 12:12:44;;;;;;;13.50;6.80;;;11.80;99.90;;;;;;5075925;28;20464;-64
2022/02/09 12:15:18;;;;;;;6.23;4.97;;;11.80;99.90;;;;;;5075564;28;20456;-64
2022/02/09 12:18:03;;;;;;;9.10;4.83;;;11.90;99.90;;;;;;5075951;28;20432;-64
2022/02/09 12:20:33;;;;;;;9.10;4.60;;;11.90;99.90;;;;;;5075841;28;20519;-65
2022/02/09 12:23:11;;;;;;;4.80;4.20;;;11.80;99.90;;;;;;5075923;28;20447;-64
2022/02/09 12:25:40;;;;;;;6.80;4.10;;;11.80;99.80;;;;;;5075830;28;20926;-64
2022/02/09 12:28:06;;;;;;;9.40;4.70;;;11.70;99.70;;;;;;5075974;28;20479;-65
2022/02/09 12:30:34;;;;;;;7.77;4.90;;;11.70;99.90;;;;;;5075763;28;20440;-64
2022/02/09 12:33:02;;;;;;;9.63;5.27;;;11.80;99.90;;;;;;5075545;28;20457;-65
2022/02/09 12:35:29;;;;;;;13.83;6.60;;;11.80;99.90;;;;;;5075762;28;20436;-64
2022/02/09 12:37:56;;;;;;;8.27;5.90;;;11.70;99.90;;;;;;5076133;28;20805;-65
2022/02/09 12:40:25;;;;;;;10.17;6.27;;;11.80;99.90;;;;;;5075777;28;20548;-65
2022/02/09 12:42:56;;;;;;;11.60;6.67;;;12.00;99.90;;;;;;5075791;28;20471;-65
2022/02/09 12:45:25;;;;;;;6.77;4.83;;;12.20;99.90;;;;;;5075829;28;20433;-65
2022/02/09 12:47:54;;;;;;;8.30;4.87;;;12.30;99.90;;;;;;5075769;28;20830;-64
2022/02/09 12:50:25;;;;;;;8.17;4.80;;;12.30;99.90;;;;;;5075878;28;20843;-64
2022/02/09 12:52:53;;;;;;;8.20;4.43;;;12.30;99.10;;;;;;5075532;28;20828;-64
2022/02/09 12:55:22;;;;;;;9.90;4.83;;;12.20;99.30;;;;;;5075811;28;20440;-65
2022/02/09 12:57:52;;;;;;;9.50;4.80;;;12.30;99.10;;;;;;5075525;28;20447;-65
2022/02/09 13:00:25;;;;;;;5.90;4.40;;;12.40;99.60;;;;;;5075439;28;20923;-65
2022/02/09 13:02:54;;;;;;;9.00;4.50;;;12.60;98.90;;;;;;5075629;28;20465;-65
2022/02/09 13:05:22;;;;;;;4.60;4.10;;;12.70;98.70;;;;;;5075694;28;20876;-64
2022/02/09 13:07:57;;;;;;;4.73;4.07;;;12.70;97.40;;;;;;5075193;28;20444;-65
2022/02/09 13:10:26;;;;;;;7.97;4.70;;;12.70;97.40;;;;;;5074488;28;20428;-65
2022/02/09 13:12:55;;;;;;;5.40;4.30;;;12.60;97.00;;;;;;5075052;28;20470;-64
2022/02/09 13:15:30;;;;;;;7.23;4.67;;;12.60;97.30;;;;;;5075310;28;20453;-65
2022/02/09 13:18:14;;;;;;;7.50;4.53;;;12.50;97.30;;;;;;5074826;28;20462;-65
2022/02/09 13:24:05;;;;;;;6.13;3.90;;;12.60;98.50;;;;;;5074840;28;20412;-65
2022/02/09 14:11:13;;;;;;;8.30;3.20;;;18.40;69.80;;;;;;5073517;28;20799;-65
2022/02/09 14:13:59;;;;;;;4.20;3.00;;;18.90;64.90;;;;;;5073628;28;20436;-65
2022/02/09 14:19:18;;;;;;;10.30;2.97;;;19.50;59.20;;;;;;5050738;28;20472;-65
2022/02/09 14:35:52;;;;;;;5.10;3.20;;;15.70;72.80;;;;;;5053043;28;20474;-68
2022/02/09 14:52:27;;;;;;;7.47;2.40;;;13.50;86.10;;;;;;5053834;28;20465;-68
2022/02/09 14:54:58;;;;;;;4.93;2.57;;;13.40;87.60;;;;;;5053431;28;20501;-68
2022/02/09 14:57:29;;;;;;;8.23;3.90;;;13.20;89.80;;;;;;5053818;28;20519;-67
2022/02/09 15:00:09;;;;;;;4.17;2.40;;;13.00;89.30;;;;;;5053121;28;20472;-64
2022/02/09 15:02:50;;;;;;;5.27;2.60;;;13.00;90.70;;;;;;5053044;28;20429;-64
2022/02/09 15:08:25;;;;;;;6.77;2.70;;;12.80;91.30;;;;;;5052931;28;20417;-64
2022/02/09 15:11:04;;;;;;;8.93;2.90;;;12.80;92.10;;;;;;5052599;28;20433;-65
2022/02/09 15:13:39;;;;;;;6.20;2.60;;;12.70;92.60;;;;;;5052878;28;20469;-64
2022/02/09 15:16:16;;;;;;;4.47;2.73;;;12.70;92.70;;;;;;5052964;28;20425;-64
2022/02/09 15:22:01;;;;;;;5.37;3.00;;;12.70;92.70;;;;;;5052853;28;20413;-64
2022/02/09 15:24:35;;;;;;;6.40;3.13;;;12.70;93.30;;;;;;5052817;28;20475;-64
2022/02/09 15:27:04;;;;;;;2.93;2.60;;;12.70;93.10;;;;;;5052716;28;20434;-69
2022/02/09 15:29:31;;;;;;;6.17;2.83;;;12.80;93.10;;;;;;5052831;28;20429;-69
2022/02/09 15:32:02;;;;;;;6.20;2.90;;;12.80;93.00;;;;;;5052883;28;20445;-69
2022/02/09 15:34:32;;;;;;;3.53;3.00;;;12.80;93.40;;;;;;5054340;28;20469;-69
2022/02/09 15:37:09;;;;;;;4.80;3.07;;;12.80;92.90;;;;;;5056636;28;20898;-71
2022/02/09 15:39:40;;;;;;;4.10;2.73;;;12.70;92.80;;;;;;5056572;28;20465;-70
2022/02/09 15:42:17;;;;;;;4.77;2.90;;;12.70;93.40;;;;;;5056368;28;20807;-64
2022/02/09 15:59:03;;;;;;;6.27;2.97;;;12.60;94.10;;;;;;5056097;28;20429;-64
2022/02/09 16:09:44;;;;;;;5.93;3.20;;;12.30;94.80;;;;;;5046563;28;20959;-64
2022/02/09 16:21:38;;;;;;;4.63;3.03;;;12.20;95.90;;;;;;5056014;28;20515;-64
2022/02/09 16:23:46;;;;;;;6.50;3.30;;;12.20;96.30;;;;;;5055000;28;20549;-64
2022/02/09 16:33:12;;;;;;;4.33;2.87;;;12.30;96.60;;;;;;5055771;28;20485;-64
2022/02/09 16:45:34;;;;;;;4.53;3.10;;;12.40;97.40;;;;;;5055178;28;20934;-64
2022/02/09 16:48:03;;;;;;;5.43;3.07;;;12.40;97.30;;;;;;5054987;28;20541;-64
2022/02/09 16:50:36;;;;;;;6.03;3.13;;;12.40;97.30;;;;;;5054675;28;20445;-64
2022/02/09 16:53:13;;;;;;;8.33;3.40;;;12.30;97.10;;;;;;5054853;28;20441;-64
2022/02/09 16:56:07;;;;;;;5.60;3.40;;;12.30;97.00;;;;;;5054657;28;20901;-64
2022/02/09 17:15:36;;;;;;;5.17;3.40;;;12.00;97.20;;;;;;5054258;28;20655;-64
2022/02/09 17:20:47;;;;;;;10.03;3.60;;;11.90;97.30;;;;;;5054369;28;20468;-64
2022/02/09 17:23:14;;;;;;;5.23;3.63;;;11.80;97.10;;;;;;5054182;28;20473;-64
2022/02/09 17:25:43;;;;;;;7.03;3.90;;;11.80;97.00;;;;;;5054241;28;20453;-64
2022/02/09 17:28:13;;;;;;;8.47;3.77;;;11.80;97.00;;;;;;5053767;28;20465;-64
2022/02/09 17:30:59;;;;;;;7.70;4.00;;;11.70;97.00;;;;;;5054193;28;20426;-64
2022/02/09 17:33:44;;;;;;;30.37;4.43;;;11.60;97.00;;;;;;5053763;28;21047;-64
2022/02/09 17:36:14;;;;;;;6.07;4.70;;;11.60;97.60;;;;;;5054078;28;20479;-65
2022/02/09 17:38:48;;;;;;;7.70;5.33;;;11.60;97.90;;;;;;5054039;28;20440;-64
2022/02/09 17:57:46;;;;;;;3.60;3.30;;;11.20;96.70;;;;;;5053292;28;20501;-64
2022/02/09 18:00:15;;;;;;;5.33;3.20;;;11.20;96.80;;;;;;5054196;28;20476;-64
2022/02/09 18:02:43;;;;;;;9.27;3.87;;;11.10;96.70;;;;;;5053315;28;20968;-64
2022/02/09 18:05:17;;;;;;;7.30;3.70;;;11.10;96.60;;;;;;5053391;28;20472;-64
2022/02/09 18:07:47;;;;;;;8.20;3.93;;;11.10;96.60;;;;;;5053493;28;20956;-65
2022/02/09 18:10:22;;;;;;;5.00;3.50;;;11.00;96.60;;;;;;5053758;28;20535;-65
2022/02/09 18:13:18;;;;;;;4.87;4.10;;;11.00;96.70;;;;;;5053474;28;20487;-66
2022/02/09 18:16:06;;;;;;;5.07;3.50;;;11.00;96.90;;;;;;5053539;28;20499;-65
2022/02/09 18:29:28;;;;;;;3.47;3.17;;;10.80;96.70;;;;;;5053141;28;20898;-66
2022/02/09 18:32:16;;;;;;;4.60;3.07;;;10.80;96.70;;;;;;5053966;28;20411;-67
2022/02/09 18:37:42;;;;;;;5.10;3.90;;;10.80;96.70;;;;;;5053713;28;20469;-66
2022/02/09 18:43:04;;;;;;;9.23;5.33;;;10.70;96.80;;;;;;5053059;28;20405;-68
2022/02/09 18:45:40;;;;;;;6.07;5.23;;;10.60;96.80;;;;;;5054086;28;20773;-69
2022/02/09 19:02:00;;;;;;;7.77;3.67;;;10.40;96.40;;;;;;5052704;28;20501;-70
2022/02/09 19:04:31;;;;;;;5.37;3.50;;;10.40;96.30;;;;;;5052575;28;20477;-71
2022/02/09 19:07:18;;;;;;;6.00;3.50;;;10.30;96.40;;;;;;5052949;28;20540;-68
2022/02/09 19:15:42;;;;;;;4.17;3.30;;;10.20;96.80;;;;;;5056821;28;20532;-69
2022/02/09 19:18:30;;;;;;;9.60;3.80;;;10.20;96.80;;;;;;5056754;28;20430;-68
2022/02/09 19:26:13;;;;;;;6.27;3.43;;;10.10;96.90;;;;;;5056636;28;20491;-69
2022/02/09 19:26:45;;;;;;;6.53;3.87;;;10.00;97.00;;;;;;5056631;28;20405;-70
2022/02/09 19:29:42;;;;;;;5.83;3.57;;;10.00;97.10;;;;;;5056284;28;20464;-70
2022/02/09 19:40:48;;;;;;;8.87;5.90;;;10.00;99.90;;;;;;5056016;28;20534;-70
2022/02/09 19:46:09;;;;;;;14.67;7.30;;;10.10;99.90;;;;;;5055962;28;20426;-70
2022/02/09 19:48:39;;;;;;;10.77;7.17;;;10.10;99.90;;;;;;5056164;28;20434;-69
2022/02/09 19:51:16;;;;;;;11.20;7.40;;;10.20;99.90;;;;;;5056120;28;20829;-70
2022/02/09 19:54:02;;;;;;;8.57;6.80;;;10.30;99.90;;;;;;5055945;28;20564;-68
2022/02/09 19:56:29;;;;;;;9.93;5.77;;;10.30;99.90;;;;;;5056022;28;20434;-69
2022/02/09 19:58:59;;;;;;;10.60;6.60;;;10.40;99.90;;;;;;5055926;28;20425;-68
2022/02/09 20:01:33;;;;;;;10.93;6.43;;;10.40;99.90;;;;;;5056431;28;20471;-67
2022/02/09 20:04:00;;;;;;;9.60;6.10;;;10.40;99.90;;;;;;5055791;28;20478;-67
2022/02/09 20:06:28;;;;;;;12.93;8.33;;;10.40;99.90;;;;;;5055645;28;20462;-69
2022/02/09 20:08:55;;;;;;;12.87;9.40;;;10.40;99.90;;;;;;5055512;28;20449;-69
2022/02/09 20:11:21;;;;;;;11.93;7.67;;;10.50;99.90;;;;;;5055769;28;20426;-68
2022/02/09 20:13:50;;;;;;;12.50;6.83;;;10.50;99.90;;;;;;5055609;28;20465;-67
2022/02/09 20:16:19;;;;;;;11.93;6.33;;;10.40;99.90;;;;;;5055648;28;20495;-68
2022/02/09 20:18:46;;;;;;;12.53;5.60;;;10.40;99.90;;;;;;5055599;28;20524;-67
2022/02/09 20:21:13;;;;;;;9.57;6.20;;;10.40;99.90;;;;;;5055092;28;20481;-68
2022/02/09 20:23:42;;;;;;;13.20;6.57;;;10.40;99.90;;;;;;5055419;28;20470;-69
2022/02/09 20:26:11;;;;;;;13.03;6.33;;;10.40;99.90;;;;;;5055566;28;20450;-71
2022/02/09 20:28:43;;;;;;;8.40;6.23;;;10.40;99.90;;;;;;5055046;28;20911;-69
2022/02/09 20:31:14;;;;;;;12.43;7.47;;;10.40;99.90;;;;;;5055116;28;20430;-69
2022/02/09 20:33:46;;;;;;;11.33;7.23;;;10.40;99.90;;;;;;5056149;28;20871;-70
2022/02/09 20:36:16;;;;;;;13.20;6.20;;;10.40;99.90;;;;;;5055296;28;20478;-69
2022/02/09 20:38:47;;;;;;;14.03;10.43;;;10.40;99.90;;;;;;5055176;28;20433;-69
2022/02/09 20:41:16;;;;;;;10.13;8.93;;;10.40;99.90;;;;;;5054807;28;20996;-68
2022/02/09 20:43:55;;;;;;;15.80;10.67;;;10.40;99.90;;;;;;5054997;28;20490;-68
2022/02/09 20:46:22;;;;;;;14.07;6.90;;;10.40;99.90;;;;;;5054936;28;20437;-69
2022/02/09 20:48:49;;;;;;;9.77;6.20;;;10.40;99.90;;;;;;5054878;28;20456;-69
2022/02/09 20:51:15;;;;;;;10.93;5.90;;;10.40;99.90;;;;;;5054683;28;20437;-68
2022/02/09 20:53:44;;;;;;;8.10;5.03;;;10.30;99.90;;;;;;5054795;28;20552;-69
2022/02/09 20:56:10;;;;;;;11.53;7.13;;;10.30;99.90;;;;;;5055048;28;20517;-69
2022/02/09 20:58:41;;;;;;;9.80;5.60;;;10.30;99.90;;;;;;5054750;28;20446;-67
2022/02/09 21:01:11;;;;;;;9.43;5.40;;;10.30;99.90;;;;;;5054703;28;20476;-68
2022/02/09 21:03:46;;;;;;;8.70;5.50;;;10.20;99.90;;;;;;5054689;28;20466;-67
2022/02/09 21:06:21;;;;;;;10.67;5.77;;;10.20;99.90;;;;;;5054666;28;20480;-67
2022/02/09 21:08:58;;;;;;;10.67;5.70;;;10.20;99.90;;;;;;5054693;28;20444;-67
2022/02/09 21:11:38;;;;;;;10.33;5.73;;;10.20;99.90;;;;;;5054644;28;20433;-67
2022/02/09 21:14:14;;;;;;;11.83;6.13;;;10.10;99.90;;;;;;5054449;28;20477;-67
2022/02/09 21:16:53;;;;;;;10.13;5.37;;;10.20;99.90;;;;;;5054119;28;20853;-67
2022/02/09 21:19:55;;;;;;;9.97;6.00;;;10.20;99.90;;;;;;5054461;28;20438;-67
2022/02/09 21:22:45;;;;;;;11.63;5.20;;;10.10;99.90;;;;;;5054037;28;20995;-67
2022/02/09 21:42:39;;;;;;;11.43;6.47;;;10.10;99.90;;;;;;5054033;28;20527;-67
2022/02/09 21:45:12;;;;;;;14.20;6.80;;;10.10;99.90;;;;;;5053473;28;20512;-67
2022/02/09 21:55:58;;;;;;;10.87;6.80;;;10.30;99.90;;;;;;5053744;28;20397;-67